sensor_id;sensor_type;location;lat;lon;timestamp;temperature;humidity
28845;DHT22;15976;47.938;7.758;2023-03-26T00:01:47;11.50;63.60
28845;DHT22;15976;47.938;7.758;2023-03-26T00:04:15;11.50;63.40
28845;DHT22;15976;47.938;7.758;2023-03-26T00:06:45;11.50;64.10
28845;DHT22;15976;47.938;7.758;2023-03-26T00:09:15;11.60;63.10
28845;DHT22;15976;47.938;7.758;2023-03-26T00:11:42;11.50;62.90
28845;DHT22;15976;47.938;7.758;2023-03-26T00:14:09;11.60;62.90
28845;DHT22;15976;47.938;7.758;2023-03-26T00:16:40;11.60;62.80
28845;DHT22;15976;47.938;7.758;2023-03-26T00:19:10;11.60;62.60
28845;DHT22;15976;47.938;7.758;2023-03-26T00:21:39;11.60;62.40
28845;DHT22;15976;47.938;7.758;2023-03-26T00:24:10;11.60;62.00
28845;DHT22;15976;47.938;7.758;2023-03-26T00:26:41;11.60;61.70
28845;DHT22;15976;47.938;7.758;2023-03-26T00:29:08;11.60;61.50
28845;DHT22;15976;47.938;7.758;2023-03-26T00:31:36;11.60;61.30
28845;DHT22;15976;47.938;7.758;2023-03-26T00:34:12;11.70;61.10
28845;DHT22;15976;47.938;7.758;2023-03-26T00:36:41;11.70;61.10
28845;DHT22;15976;47.938;7.758;2023-03-26T00:39:09;11.70;60.80
28845;DHT22;15976;47.938;7.758;2023-03-26T00:41:36;11.70;60.70
28845;DHT22;15976;47.938;7.758;2023-03-26T00:44:09;11.70;60.30
28845;DHT22;15976;47.938;7.758;2023-03-26T00:46:36;11.70;59.90
28845;DHT22;15976;47.938;7.758;2023-03-26T00:49:04;11.70;59.70
28845;DHT22;15976;47.938;7.758;2023-03-26T00:51:45;11.70;59.60
28845;DHT22;15976;47.938;7.758;2023-03-26T00:54:21;11.70;59.30
28845;DHT22;15976;47.938;7.758;2023-03-26T00:56:48;11.70;59.10
28845;DHT22;15976;47.938;7.758;2023-03-26T00:59:15;11.70;59.00
28845;DHT22;15976;47.938;7.758;2023-03-26T01:01:42;11.70;58.90
28845;DHT22;15976;47.938;7.758;2023-03-26T01:04:37;11.70;58.80
28845;DHT22;15976;47.938;7.758;2023-03-26T01:07:09;11.70;58.70
28845;DHT22;15976;47.938;7.758;2023-03-26T01:09:40;11.70;58.60
28845;DHT22;15976;47.938;7.758;2023-03-26T01:12:13;11.70;58.60
28845;DHT22;15976;47.938;7.758;2023-03-26T01:14:45;11.70;58.60
28845;DHT22;15976;47.938;7.758;2023-03-26T01:17:13;11.70;58.50
28845;DHT22;15976;47.938;7.758;2023-03-26T01:22:22;11.70;58.50
28845;DHT22;15976;47.938;7.758;2023-03-26T01:24:50;11.70;58.50
28845;DHT22;15976;47.938;7.758;2023-03-26T01:27:39;11.70;58.50
28845;DHT22;15976;47.938;7.758;2023-03-26T01:40:35;11.60;58.40
28845;DHT22;15976;47.938;7.758;2023-03-26T01:43:31;11.60;58.40
28845;DHT22;15976;47.938;7.758;2023-03-26T01:46:04;11.60;58.20
28845;DHT22;15976;47.938;7.758;2023-03-26T01:48:40;11.60;58.20
28845;DHT22;15976;47.938;7.758;2023-03-26T01:51:10;11.60;58.20
28845;DHT22;15976;47.938;7.758;2023-03-26T01:53:43;11.60;58.20
28845;DHT22;15976;47.938;7.758;2023-03-26T01:56:35;11.60;58.20
28845;DHT22;15976;47.938;7.758;2023-03-26T02:02:03;11.70;58.30
28845;DHT22;15976;47.938;7.758;2023-03-26T02:07:40;11.60;58.10
28845;DHT22;15976;47.938;7.758;2023-03-26T02:10:29;11.60;58.00
28845;DHT22;15976;47.938;7.758;2023-03-26T02:12:57;11.60;57.80
28845;DHT22;15976;47.938;7.758;2023-03-26T02:15:24;11.60;57.70
28845;DHT22;15976;47.938;7.758;2023-03-26T02:17:52;11.60;57.50
28845;DHT22;15976;47.938;7.758;2023-03-26T02:20:21;11.60;57.40
28845;DHT22;15976;47.938;7.758;2023-03-26T02:22:48;11.70;57.30
28845;DHT22;15976;47.938;7.758;2023-03-26T02:25:18;11.60;57.20
28845;DHT22;15976;47.938;7.758;2023-03-26T02:27:49;11.70;57.00
28845;DHT22;15976;47.938;7.758;2023-03-26T02:30:20;11.70;56.80
28845;DHT22;15976;47.938;7.758;2023-03-26T02:32:54;11.70;56.60
28845;DHT22;15976;47.938;7.758;2023-03-26T02:35:29;11.70;56.70
28845;DHT22;15976;47.938;7.758;2023-03-26T02:37:59;11.70;56.70
28845;DHT22;15976;47.938;7.758;2023-03-26T02:40:26;11.70;56.50
28845;DHT22;15976;47.938;7.758;2023-03-26T02:42:54;11.70;56.40
28845;DHT22;15976;47.938;7.758;2023-03-26T02:45:21;11.70;56.20
28845;DHT22;15976;47.938;7.758;2023-03-26T02:48:04;11.70;56.10
28845;DHT22;15976;47.938;7.758;2023-03-26T02:50:37;11.70;56.10
28845;DHT22;15976;47.938;7.758;2023-03-26T02:53:22;11.70;56.20
28845;DHT22;15976;47.938;7.758;2023-03-26T02:56:13;11.70;56.20
28845;DHT22;15976;47.938;7.758;2023-03-26T02:58:52;11.70;56.30
28845;DHT22;15976;47.938;7.758;2023-03-26T03:01:19;11.70;56.40
28845;DHT22;15976;47.938;7.758;2023-03-26T03:03:50;11.70;56.50
28845;DHT22;15976;47.938;7.758;2023-03-26T03:06:32;11.70;56.60
28845;DHT22;15976;47.938;7.758;2023-03-26T03:08:59;11.70;56.70
28845;DHT22;15976;47.938;7.758;2023-03-26T03:11:34;11.70;56.80
28845;DHT22;15976;47.938;7.758;2023-03-26T03:14:04;11.70;57.00
28845;DHT22;15976;47.938;7.758;2023-03-26T03:16:32;11.70;57.10
28845;DHT22;15976;47.938;7.758;2023-03-26T03:19:05;11.70;57.20
28845;DHT22;15976;47.938;7.758;2023-03-26T03:21:41;11.70;57.30
28845;DHT22;15976;47.938;7.758;2023-03-26T03:24:09;11.80;57.50
28845;DHT22;15976;47.938;7.758;2023-03-26T03:26:41;11.80;57.60
28845;DHT22;15976;47.938;7.758;2023-03-26T03:29:27;11.70;57.60
28845;DHT22;15976;47.938;7.758;2023-03-26T03:31:56;11.80;57.80
28845;DHT22;15976;47.938;7.758;2023-03-26T03:34:45;11.80;57.90
28845;DHT22;15976;47.938;7.758;2023-03-26T03:37:17;11.80;57.90
28845;DHT22;15976;47.938;7.758;2023-03-26T03:39:49;11.80;57.90
28845;DHT22;15976;47.938;7.758;2023-03-26T03:42:19;11.80;58.00
28845;DHT22;15976;47.938;7.758;2023-03-26T03:44:49;11.80;58.10
28845;DHT22;15976;47.938;7.758;2023-03-26T03:47:39;11.80;58.20
28845;DHT22;15976;47.938;7.758;2023-03-26T03:50:08;11.90;58.30
28845;DHT22;15976;47.938;7.758;2023-03-26T03:52:38;11.90;58.30
28845;DHT22;15976;47.938;7.758;2023-03-26T03:55:06;11.90;58.30
28845;DHT22;15976;47.938;7.758;2023-03-26T03:57:44;11.90;58.40
28845;DHT22;15976;47.938;7.758;2023-03-26T04:00:17;11.90;58.50
28845;DHT22;15976;47.938;7.758;2023-03-26T04:02:56;11.90;58.50
28845;DHT22;15976;47.938;7.758;2023-03-26T04:05:27;11.90;58.40
28845;DHT22;15976;47.938;7.758;2023-03-26T04:07:53;11.90;58.40
28845;DHT22;15976;47.938;7.758;2023-03-26T04:10:44;11.90;58.40
28845;DHT22;15976;47.938;7.758;2023-03-26T04:13:12;11.90;58.30
28845;DHT22;15976;47.938;7.758;2023-03-26T04:15:58;11.90;58.10
28845;DHT22;15976;47.938;7.758;2023-03-26T04:18:26;11.90;58.00
28845;DHT22;15976;47.938;7.758;2023-03-26T04:20:56;11.90;57.90
28845;DHT22;15976;47.938;7.758;2023-03-26T04:23:26;12.00;57.80
28845;DHT22;15976;47.938;7.758;2023-03-26T04:26:27;12.00;57.60
28845;DHT22;15976;47.938;7.758;2023-03-26T04:29:09;12.00;57.40
28845;DHT22;15976;47.938;7.758;2023-03-26T04:31:39;12.00;57.40
28845;DHT22;15976;47.938;7.758;2023-03-26T04:34:20;12.00;57.50
28845;DHT22;15976;47.938;7.758;2023-03-26T04:37:02;12.00;58.10
28845;DHT22;15976;47.938;7.758;2023-03-26T04:39:33;11.90;58.50
28845;DHT22;15976;47.938;7.758;2023-03-26T04:42:30;11.90;58.60
28845;DHT22;15976;47.938;7.758;2023-03-26T04:45:10;11.90;58.70
28845;DHT22;15976;47.938;7.758;2023-03-26T04:47:40;11.90;58.90
28845;DHT22;15976;47.938;7.758;2023-03-26T04:50:08;11.90;58.90
28845;DHT22;15976;47.938;7.758;2023-03-26T04:52:37;11.90;58.90
28845;DHT22;15976;47.938;7.758;2023-03-26T04:55:40;11.90;59.00
28845;DHT22;15976;47.938;7.758;2023-03-26T04:58:17;11.90;59.00
28845;DHT22;15976;47.938;7.758;2023-03-26T05:01:00;11.90;59.10
28845;DHT22;15976;47.938;7.758;2023-03-26T05:03:42;11.90;59.70
28845;DHT22;15976;47.938;7.758;2023-03-26T05:06:13;11.90;59.20
28845;DHT22;15976;47.938;7.758;2023-03-26T05:08:41;11.90;59.30
28845;DHT22;15976;47.938;7.758;2023-03-26T05:11:15;11.90;59.50
28845;DHT22;15976;47.938;7.758;2023-03-26T05:13:42;11.90;59.50
28845;DHT22;15976;47.938;7.758;2023-03-26T05:16:12;11.90;59.70
28845;DHT22;15976;47.938;7.758;2023-03-26T05:18:54;11.90;59.90
28845;DHT22;15976;47.938;7.758;2023-03-26T05:21:23;11.90;60.70
28845;DHT22;15976;47.938;7.758;2023-03-26T05:23:50;11.80;61.70
28845;DHT22;15976;47.938;7.758;2023-03-26T05:26:18;11.70;62.40
28845;DHT22;15976;47.938;7.758;2023-03-26T05:28:46;11.60;62.90
28845;DHT22;15976;47.938;7.758;2023-03-26T05:31:23;11.60;63.30
28845;DHT22;15976;47.938;7.758;2023-03-26T05:33:53;11.60;63.60
28845;DHT22;15976;47.938;7.758;2023-03-26T05:36:21;11.60;63.60
28845;DHT22;15976;47.938;7.758;2023-03-26T05:39:02;11.70;63.70
28845;DHT22;15976;47.938;7.758;2023-03-26T05:41:48;11.70;63.80
28845;DHT22;15976;47.938;7.758;2023-03-26T05:44:17;11.60;64.10
28845;DHT22;15976;47.938;7.758;2023-03-26T05:46:44;11.40;65.20
28845;DHT22;15976;47.938;7.758;2023-03-26T05:49:19;11.30;66.40
28845;DHT22;15976;47.938;7.758;2023-03-26T05:51:47;11.20;67.20
28845;DHT22;15976;47.938;7.758;2023-03-26T05:54:31;11.20;67.80
28845;DHT22;15976;47.938;7.758;2023-03-26T05:57:07;11.10;68.10
28845;DHT22;15976;47.938;7.758;2023-03-26T05:59:53;11.10;68.50
28845;DHT22;15976;47.938;7.758;2023-03-26T06:02:39;11.10;69.40
28845;DHT22;15976;47.938;7.758;2023-03-26T06:05:31;11.10;68.50
28845;DHT22;15976;47.938;7.758;2023-03-26T06:08:20;11.10;68.50
28845;DHT22;15976;47.938;7.758;2023-03-26T06:10:50;11.10;68.40
28845;DHT22;15976;47.938;7.758;2023-03-26T06:13:17;11.20;68.10
28845;DHT22;15976;47.938;7.758;2023-03-26T06:15:46;11.30;67.90
28845;DHT22;15976;47.938;7.758;2023-03-26T06:18:21;11.30;67.60
28845;DHT22;15976;47.938;7.758;2023-03-26T06:21:18;11.40;67.20
28845;DHT22;15976;47.938;7.758;2023-03-26T06:24:11;11.50;67.10
28845;DHT22;15976;47.938;7.758;2023-03-26T06:26:38;11.50;67.20
28845;DHT22;15976;47.938;7.758;2023-03-26T06:29:19;11.60;67.40
28845;DHT22;15976;47.938;7.758;2023-03-26T06:32:04;11.60;67.20
28845;DHT22;15976;47.938;7.758;2023-03-26T06:34:51;11.70;67.10
28845;DHT22;15976;47.938;7.758;2023-03-26T06:37:20;11.70;67.20
28845;DHT22;15976;47.938;7.758;2023-03-26T06:39:55;11.70;67.60
28845;DHT22;15976;47.938;7.758;2023-03-26T06:42:40;11.70;68.20
28845;DHT22;15976;47.938;7.758;2023-03-26T06:45:51;11.80;68.40
28845;DHT22;15976;47.938;7.758;2023-03-26T06:48:36;11.80;68.50
28845;DHT22;15976;47.938;7.758;2023-03-26T06:51:21;11.70;68.40
28845;DHT22;15976;47.938;7.758;2023-03-26T06:54:11;11.70;68.20
28845;DHT22;15976;47.938;7.758;2023-03-26T06:57:00;11.70;68.70
28845;DHT22;15976;47.938;7.758;2023-03-26T06:59:59;11.50;69.60
28845;DHT22;15976;47.938;7.758;2023-03-26T07:03:03;11.40;71.20
28845;DHT22;15976;47.938;7.758;2023-03-26T07:05:49;11.30;71.00
28845;DHT22;15976;47.938;7.758;2023-03-26T07:08:34;11.30;71.40
28845;DHT22;15976;47.938;7.758;2023-03-26T07:11:33;11.30;71.50
28845;DHT22;15976;47.938;7.758;2023-03-26T07:14:19;11.40;71.40
28845;DHT22;15976;47.938;7.758;2023-03-26T07:17:01;11.50;71.00
28845;DHT22;15976;47.938;7.758;2023-03-26T07:19:38;11.60;70.60
28845;DHT22;15976;47.938;7.758;2023-03-26T07:22:05;11.70;70.20
28845;DHT22;15976;47.938;7.758;2023-03-26T07:24:51;11.80;69.90
28845;DHT22;15976;47.938;7.758;2023-03-26T07:30:58;11.90;68.80
28845;DHT22;15976;47.938;7.758;2023-03-26T07:36:42;12.10;67.70
28845;DHT22;15976;47.938;7.758;2023-03-26T07:39:55;12.20;67.20
28845;DHT22;15976;47.938;7.758;2023-03-26T07:45:50;12.30;66.90
28845;DHT22;15976;47.938;7.758;2023-03-26T07:48:26;12.00;68.50
28845;DHT22;15976;47.938;7.758;2023-03-26T07:51:12;11.90;69.40
28845;DHT22;15976;47.938;7.758;2023-03-26T07:53:52;11.70;70.00
28845;DHT22;15976;47.938;7.758;2023-03-26T07:56:41;11.40;72.60
28845;DHT22;15976;47.938;7.758;2023-03-26T07:59:33;11.00;74.80
28845;DHT22;15976;47.938;7.758;2023-03-26T08:05:29;10.40;79.40
28845;DHT22;15976;47.938;7.758;2023-03-26T08:08:48;10.20;81.60
28845;DHT22;15976;47.938;7.758;2023-03-26T08:11:43;10.00;84.00
28845;DHT22;15976;47.938;7.758;2023-03-26T08:17:55;9.80;87.90
28845;DHT22;15976;47.938;7.758;2023-03-26T08:23:07;10.00;89.70
28845;DHT22;15976;47.938;7.758;2023-03-26T08:26:00;10.00;89.10
28845;DHT22;15976;47.938;7.758;2023-03-26T08:31:26;10.30;90.20
28845;DHT22;15976;47.938;7.758;2023-03-26T08:33:55;10.60;90.00
28845;DHT22;15976;47.938;7.758;2023-03-26T08:36:22;11.50;89.70
28845;DHT22;15976;47.938;7.758;2023-03-26T08:38:49;12.40;83.00
28845;DHT22;15976;47.938;7.758;2023-03-26T08:41:52;13.00;79.10
28845;DHT22;15976;47.938;7.758;2023-03-26T08:56:00;13.60;73.20
28845;DHT22;15976;47.938;7.758;2023-03-26T09:05:20;14.00;72.00
28845;DHT22;15976;47.938;7.758;2023-03-26T09:08:33;13.90;70.30
28845;DHT22;15976;47.938;7.758;2023-03-26T09:25:28;12.80;71.80
28845;DHT22;15976;47.938;7.758;2023-03-26T09:39:01;14.30;63.20
28845;DHT22;15976;47.938;7.758;2023-03-26T10:03:58;15.20;53.50
28845;DHT22;15976;47.938;7.758;2023-03-26T10:06:39;15.40;53.20
28845;DHT22;15976;47.938;7.758;2023-03-26T10:12:05;15.80;53.10
28845;DHT22;15976;47.938;7.758;2023-03-26T10:17:34;15.90;52.50
28845;DHT22;15976;47.938;7.758;2023-03-26T10:20:14;16.10;51.60
28845;DHT22;15976;47.938;7.758;2023-03-26T10:34:48;14.90;52.10
28845;DHT22;15976;47.938;7.758;2023-03-26T10:46:26;14.30;53.60
28845;DHT22;15976;47.938;7.758;2023-03-26T10:51:57;14.30;53.10
28845;DHT22;15976;47.938;7.758;2023-03-26T10:57:32;15.40;51.60
28845;DHT22;15976;47.938;7.758;2023-03-26T11:00:13;15.80;50.50
28845;DHT22;15976;47.938;7.758;2023-03-26T11:03:08;16.20;50.00
28845;DHT22;15976;47.938;7.758;2023-03-26T11:11:29;16.70;46.90
28845;DHT22;15976;47.938;7.758;2023-03-26T11:14:19;16.90;46.80
28845;DHT22;15976;47.938;7.758;2023-03-26T11:17:10;17.00;46.80
28845;DHT22;15976;47.938;7.758;2023-03-26T11:23:25;17.10;44.60
28845;DHT22;15976;47.938;7.758;2023-03-26T11:26:16;17.20;42.60
28845;DHT22;15976;47.938;7.758;2023-03-26T11:31:56;16.80;43.30
28845;DHT22;15976;47.938;7.758;2023-03-26T11:34:40;16.10;42.40
28845;DHT22;15976;47.938;7.758;2023-03-26T11:39:56;14.90;46.60
28845;DHT22;15976;47.938;7.758;2023-03-26T11:42:25;14.40;46.80
28845;DHT22;15976;47.938;7.758;2023-03-26T11:45:04;14.00;47.50
28845;DHT22;15976;47.938;7.758;2023-03-26T11:47:41;13.80;48.20
28845;DHT22;15976;47.938;7.758;2023-03-26T11:50:24;13.70;48.30
28845;DHT22;15976;47.938;7.758;2023-03-26T11:52:56;13.60;49.70
28845;DHT22;15976;47.938;7.758;2023-03-26T11:55:24;13.40;51.30
28845;DHT22;15976;47.938;7.758;2023-03-26T11:57:56;13.30;52.00
28845;DHT22;15976;47.938;7.758;2023-03-26T12:00:23;13.20;53.10
28845;DHT22;15976;47.938;7.758;2023-03-26T12:02:57;13.00;53.70
28845;DHT22;15976;47.938;7.758;2023-03-26T12:06:00;12.70;55.60
28845;DHT22;15976;47.938;7.758;2023-03-26T12:08:40;12.20;58.50
28845;DHT22;15976;47.938;7.758;2023-03-26T12:11:35;12.00;59.90
28845;DHT22;15976;47.938;7.758;2023-03-26T12:14:46;12.00;60.00
28845;DHT22;15976;47.938;7.758;2023-03-26T12:17:34;12.20;59.60
28845;DHT22;15976;47.938;7.758;2023-03-26T12:23:11;12.50;57.80
28845;DHT22;15976;47.938;7.758;2023-03-26T12:26:39;12.60;57.40
28845;DHT22;15976;47.938;7.758;2023-03-26T12:29:19;12.70;56.70
28845;DHT22;15976;47.938;7.758;2023-03-26T12:32:19;12.70;56.40
28845;DHT22;15976;47.938;7.758;2023-03-26T12:35:26;12.70;56.40
28845;DHT22;15976;47.938;7.758;2023-03-26T12:38:55;12.60;56.40
28845;DHT22;15976;47.938;7.758;2023-03-26T12:41:56;12.70;56.40
28845;DHT22;15976;47.938;7.758;2023-03-26T12:44:55;12.80;56.40
28845;DHT22;15976;47.938;7.758;2023-03-26T12:47:30;13.00;56.30
28845;DHT22;15976;47.938;7.758;2023-03-26T13:03:02;13.30;55.50
28845;DHT22;15976;47.938;7.758;2023-03-26T13:08:37;13.60;55.30
28845;DHT22;15976;47.938;7.758;2023-03-26T13:19:37;14.40;55.40
28845;DHT22;15976;47.938;7.758;2023-03-26T13:28:09;15.80;52.80
28845;DHT22;15976;47.938;7.758;2023-03-26T13:34:27;15.90;51.60
28845;DHT22;15976;47.938;7.758;2023-03-26T13:42:15;15.20;50.90
28845;DHT22;15976;47.938;7.758;2023-03-26T13:47:40;14.60;51.70
28845;DHT22;15976;47.938;7.758;2023-03-26T13:50:29;14.40;51.80
28845;DHT22;15976;47.938;7.758;2023-03-26T14:21:50;9.80;85.70
28845;DHT22;15976;47.938;7.758;2023-03-26T14:27:23;10.00;85.40
28845;DHT22;15976;47.938;7.758;2023-03-26T14:30:16;10.00;85.90
28845;DHT22;15976;47.938;7.758;2023-03-26T14:41:05;10.10;87.20
28845;DHT22;15976;47.938;7.758;2023-03-26T14:46:53;10.90;88.00
28845;DHT22;15976;47.938;7.758;2023-03-26T14:49:46;11.70;88.90
28845;DHT22;15976;47.938;7.758;2023-03-26T14:54:43;13.40;81.40
28845;DHT22;15976;47.938;7.758;2023-03-26T15:02:51;12.50;81.10
28845;DHT22;15976;47.938;7.758;2023-03-26T15:05:46;12.30;81.70
28845;DHT22;15976;47.938;7.758;2023-03-26T15:11:09;12.70;80.20
28845;DHT22;15976;47.938;7.758;2023-03-26T15:18:10;12.60;76.70
28845;DHT22;15976;47.938;7.758;2023-03-26T15:43:15;12.20;70.60
28845;DHT22;15976;47.938;7.758;2023-03-26T16:00:02;11.10;70.30
28845;DHT22;15976;47.938;7.758;2023-03-26T16:10:56;10.90;69.00
28845;DHT22;15976;47.938;7.758;2023-03-26T16:18:31;11.00;68.10
28845;DHT22;15976;47.938;7.758;2023-03-26T16:26:59;11.10;67.20
28845;DHT22;15976;47.938;7.758;2023-03-26T16:36:37;11.10;66.10
28845;DHT22;15976;47.938;7.758;2023-03-26T16:58:12;10.70;66.10
28845;DHT22;15976;47.938;7.758;2023-03-26T17:00:53;10.70;66.50
28845;DHT22;15976;47.938;7.758;2023-03-26T17:03:40;10.60;66.40
28845;DHT22;15976;47.938;7.758;2023-03-26T17:14:30;9.90;71.30
28845;DHT22;15976;47.938;7.758;2023-03-26T17:20:01;9.80;72.70
28845;DHT22;15976;47.938;7.758;2023-03-26T17:22:58;9.70;72.50
28845;DHT22;15976;47.938;7.758;2023-03-26T17:25:43;9.70;72.70
28845;DHT22;15976;47.938;7.758;2023-03-26T17:33:37;9.70;72.30
28845;DHT22;15976;47.938;7.758;2023-03-26T17:36:53;9.70;72.50
28845;DHT22;15976;47.938;7.758;2023-03-26T17:42:31;9.70;72.10
28845;DHT22;15976;47.938;7.758;2023-03-26T17:45:17;9.80;71.90
28845;DHT22;15976;47.938;7.758;2023-03-26T17:50:56;9.80;71.50
28845;DHT22;15976;47.938;7.758;2023-03-26T17:53:33;9.90;71.40
28845;DHT22;15976;47.938;7.758;2023-03-26T17:56:04;9.80;71.60
28845;DHT22;15976;47.938;7.758;2023-03-26T17:58:40;9.90;71.50
28845;DHT22;15976;47.938;7.758;2023-03-26T18:03:57;9.80;71.40
28845;DHT22;15976;47.938;7.758;2023-03-26T18:09:23;9.80;71.30
28845;DHT22;15976;47.938;7.758;2023-03-26T18:12:37;9.70;71.20
28845;DHT22;15976;47.938;7.758;2023-03-26T18:15:29;9.70;71.40
28845;DHT22;15976;47.938;7.758;2023-03-26T18:20:47;9.80;71.50
28845;DHT22;15976;47.938;7.758;2023-03-26T18:23:37;9.80;71.40
28845;DHT22;15976;47.938;7.758;2023-03-26T18:29:16;9.80;71.40
28845;DHT22;15976;47.938;7.758;2023-03-26T18:31:47;9.90;71.50
28845;DHT22;15976;47.938;7.758;2023-03-26T18:34:16;9.90;71.40
28845;DHT22;15976;47.938;7.758;2023-03-26T18:37:04;9.90;71.30
28845;DHT22;15976;47.938;7.758;2023-03-26T18:39:37;9.80;71.20
28845;DHT22;15976;47.938;7.758;2023-03-26T18:42:05;9.80;71.20
28845;DHT22;15976;47.938;7.758;2023-03-26T18:44:34;9.80;71.20
28845;DHT22;15976;47.938;7.758;2023-03-26T18:47:05;9.80;71.20
28845;DHT22;15976;47.938;7.758;2023-03-26T18:49:32;9.80;71.20
28845;DHT22;15976;47.938;7.758;2023-03-26T18:52:02;9.80;71.50
28845;DHT22;15976;47.938;7.758;2023-03-26T18:54:33;9.80;71.50
28845;DHT22;15976;47.938;7.758;2023-03-26T18:57:09;9.80;71.50
28845;DHT22;15976;47.938;7.758;2023-03-26T18:59:42;9.80;71.50
28845;DHT22;15976;47.938;7.758;2023-03-26T19:02:11;9.80;71.40
28845;DHT22;15976;47.938;7.758;2023-03-26T19:04:41;9.80;71.20
28845;DHT22;15976;47.938;7.758;2023-03-26T19:07:21;9.90;71.20
28845;DHT22;15976;47.938;7.758;2023-03-26T19:09:49;9.90;71.00
28845;DHT22;15976;47.938;7.758;2023-03-26T19:12:29;9.90;71.10
28845;DHT22;15976;47.938;7.758;2023-03-26T19:15:02;9.90;71.10
28845;DHT22;15976;47.938;7.758;2023-03-26T19:17:35;9.90;70.90
28845;DHT22;15976;47.938;7.758;2023-03-26T19:20:06;9.90;70.90
28845;DHT22;15976;47.938;7.758;2023-03-26T19:22:35;9.80;71.80
28845;DHT22;15976;47.938;7.758;2023-03-26T19:25:02;9.60;73.10
28845;DHT22;15976;47.938;7.758;2023-03-26T19:27:31;9.30;75.20
28845;DHT22;15976;47.938;7.758;2023-03-26T19:29:58;9.00;78.50
28845;DHT22;15976;47.938;7.758;2023-03-26T19:32:30;8.80;79.90
28845;DHT22;15976;47.938;7.758;2023-03-26T19:34:59;8.60;82.00
28845;DHT22;15976;47.938;7.758;2023-03-26T19:37:29;8.60;83.30
28845;DHT22;15976;47.938;7.758;2023-03-26T19:40:13;8.50;84.20
28845;DHT22;15976;47.938;7.758;2023-03-26T19:42:41;8.50;84.90
28845;DHT22;15976;47.938;7.758;2023-03-26T19:45:19;8.40;85.60
28845;DHT22;15976;47.938;7.758;2023-03-26T19:47:49;8.30;86.50
28845;DHT22;15976;47.938;7.758;2023-03-26T19:50:35;8.20;87.30
28845;DHT22;15976;47.938;7.758;2023-03-26T19:53:20;8.10;87.50
28845;DHT22;15976;47.938;7.758;2023-03-26T19:56:01;8.00;88.60
28845;DHT22;15976;47.938;7.758;2023-03-26T19:58:29;8.00;89.00
28845;DHT22;15976;47.938;7.758;2023-03-26T20:00:56;8.00;88.90
28845;DHT22;15976;47.938;7.758;2023-03-26T20:03:29;7.90;88.70
28845;DHT22;15976;47.938;7.758;2023-03-26T20:06:02;8.00;89.00
28845;DHT22;15976;47.938;7.758;2023-03-26T20:08:29;7.90;89.10
28845;DHT22;15976;47.938;7.758;2023-03-26T20:10:56;7.90;89.10
28845;DHT22;15976;47.938;7.758;2023-03-26T20:13:24;7.90;89.30
28845;DHT22;15976;47.938;7.758;2023-03-26T20:16:01;8.00;89.20
28845;DHT22;15976;47.938;7.758;2023-03-26T20:18:33;8.00;89.30
28845;DHT22;15976;47.938;7.758;2023-03-26T20:21:00;8.00;89.00
28845;DHT22;15976;47.938;7.758;2023-03-26T20:23:27;7.90;89.00
28845;DHT22;15976;47.938;7.758;2023-03-26T20:25:54;7.70;88.40
28845;DHT22;15976;47.938;7.758;2023-03-26T20:28:22;7.60;88.80
28845;DHT22;15976;47.938;7.758;2023-03-26T20:30:50;7.70;90.00
28845;DHT22;15976;47.938;7.758;2023-03-26T20:33:23;7.60;89.40
28845;DHT22;15976;47.938;7.758;2023-03-26T20:35:55;7.60;89.30
28845;DHT22;15976;47.938;7.758;2023-03-26T20:38:24;7.60;89.10
28845;DHT22;15976;47.938;7.758;2023-03-26T20:41:11;7.60;89.00
28845;DHT22;15976;47.938;7.758;2023-03-26T20:43:38;7.60;89.20
28845;DHT22;15976;47.938;7.758;2023-03-26T20:46:05;7.60;89.20
28845;DHT22;15976;47.938;7.758;2023-03-26T20:48:33;7.50;89.30
28845;DHT22;15976;47.938;7.758;2023-03-26T20:51:01;7.50;89.00
28845;DHT22;15976;47.938;7.758;2023-03-26T20:53:29;7.50;89.00
28845;DHT22;15976;47.938;7.758;2023-03-26T20:55:56;7.50;89.30
28845;DHT22;15976;47.938;7.758;2023-03-26T20:58:23;7.50;89.10
28845;DHT22;15976;47.938;7.758;2023-03-26T21:01:00;7.50;88.90
28845;DHT22;15976;47.938;7.758;2023-03-26T21:03:28;7.50;89.40
28845;DHT22;15976;47.938;7.758;2023-03-26T21:05:59;7.60;89.40
28845;DHT22;15976;47.938;7.758;2023-03-26T21:08:27;7.60;88.90
28845;DHT22;15976;47.938;7.758;2023-03-26T21:11:01;7.60;88.80
28845;DHT22;15976;47.938;7.758;2023-03-26T21:13:39;7.70;88.80
28845;DHT22;15976;47.938;7.758;2023-03-26T21:16:10;7.70;88.40
28845;DHT22;15976;47.938;7.758;2023-03-26T21:18:39;7.80;88.30
28845;DHT22;15976;47.938;7.758;2023-03-26T21:23:54;7.90;88.30
28845;DHT22;15976;47.938;7.758;2023-03-26T21:26:32;7.90;87.70
28845;DHT22;15976;47.938;7.758;2023-03-26T21:29:09;7.90;87.60
28845;DHT22;15976;47.938;7.758;2023-03-26T21:31:38;7.90;87.40
28845;DHT22;15976;47.938;7.758;2023-03-26T21:34:05;7.90;87.00
28845;DHT22;15976;47.938;7.758;2023-03-26T21:36:34;7.80;87.40
28845;DHT22;15976;47.938;7.758;2023-03-26T21:39:05;7.80;86.50
28845;DHT22;15976;47.938;7.758;2023-03-26T21:41:49;7.90;86.30
28845;DHT22;15976;47.938;7.758;2023-03-26T21:44:32;7.90;87.10
28845;DHT22;15976;47.938;7.758;2023-03-26T21:46:59;8.00;85.90
28845;DHT22;15976;47.938;7.758;2023-03-26T21:52:37;8.10;85.10
28845;DHT22;15976;47.938;7.758;2023-03-26T21:55:25;8.10;85.00
28845;DHT22;15976;47.938;7.758;2023-03-26T22:04:51;8.10;84.30
28845;DHT22;15976;47.938;7.758;2023-03-26T22:07:57;8.10;84.10
28845;DHT22;15976;47.938;7.758;2023-03-26T22:10:26;8.20;84.00
28845;DHT22;15976;47.938;7.758;2023-03-26T22:12:59;8.20;83.40
28845;DHT22;15976;47.938;7.758;2023-03-26T22:15:33;8.20;82.80
28845;DHT22;15976;47.938;7.758;2023-03-26T22:18:28;8.20;82.90
28845;DHT22;15976;47.938;7.758;2023-03-26T22:21:05;8.20;82.90
28845;DHT22;15976;47.938;7.758;2023-03-26T22:23:58;8.20;83.00
28845;DHT22;15976;47.938;7.758;2023-03-26T22:26:46;8.20;83.20
28845;DHT22;15976;47.938;7.758;2023-03-26T22:29:33;8.20;82.70
28845;DHT22;15976;47.938;7.758;2023-03-26T22:32:16;8.30;82.80
28845;DHT22;15976;47.938;7.758;2023-03-26T22:34:49;8.30;82.70
28845;DHT22;15976;47.938;7.758;2023-03-26T22:37:37;8.30;82.30
28845;DHT22;15976;47.938;7.758;2023-03-26T22:40:12;8.30;82.30
28845;DHT22;15976;47.938;7.758;2023-03-26T22:42:57;8.30;82.40
28845;DHT22;15976;47.938;7.758;2023-03-26T22:45:31;8.30;82.20
28845;DHT22;15976;47.938;7.758;2023-03-26T22:48:19;8.30;82.00
28845;DHT22;15976;47.938;7.758;2023-03-26T22:51:05;8.30;81.90
28845;DHT22;15976;47.938;7.758;2023-03-26T22:53:56;8.30;82.20
28845;DHT22;15976;47.938;7.758;2023-03-26T22:59:23;8.30;82.00
28845;DHT22;15976;47.938;7.758;2023-03-26T23:02:08;8.40;82.00
28845;DHT22;15976;47.938;7.758;2023-03-26T23:04:46;8.40;81.90
28845;DHT22;15976;47.938;7.758;2023-03-26T23:07:17;8.40;81.70
28845;DHT22;15976;47.938;7.758;2023-03-26T23:09:54;8.40;81.60